Time;durP1;ratioP1;P1;durP2;ratioP2;P2;SDS_P1;SDS_P2;PMS_P1;PMS_P2;Temp;Humidity;BMP_temperature;BMP_pressure;BME280_temperature;BME280_humidity;BME280_pressure;Samples;Min_cycle;Max_cycle;Signal;HPM_P1;HPM_P2
2022/01/08 00:01:29;;;;;;;7.75;4.18;;;4.80;81.60;;;;;;5016513;28;20236;-80
2022/01/08 00:03:57;;;;;;;5.57;3.35;;;4.80;81.60;;;;;;4997554;28;20197;-80
2022/01/08 00:06:25;;;;;;;6.93;4.03;;;4.80;81.60;;;;;;5019511;28;20213;-79
2022/01/08 00:08:54;;;;;;;5.35;3.35;;;4.80;81.70;;;;;;5019440;28;20259;-80
2022/01/08 00:11:25;;;;;;;6.15;3.80;;;4.80;81.80;;;;;;5022211;28;20756;-80
2022/01/08 00:13:54;;;;;;;7.10;4.35;;;4.90;81.90;;;;;;5016492;28;20193;-80
2022/01/08 00:16:22;;;;;;;7.40;4.50;;;4.90;81.80;;;;;;5017977;28;20233;-80
2022/01/08 00:18:51;;;;;;;5.97;3.30;;;4.90;81.70;;;;;;5014134;28;20747;-80
2022/01/08 00:21:20;;;;;;;6.10;3.85;;;4.90;81.70;;;;;;5001728;28;20206;-79
2022/01/08 00:23:48;;;;;;;5.15;3.70;;;4.90;81.80;;;;;;5001163;28;20211;-80
2022/01/08 00:26:17;;;;;;;7.03;4.20;;;5.00;81.80;;;;;;4997230;28;20213;-80
2022/01/08 00:28:45;;;;;;;6.68;3.72;;;5.00;81.80;;;;;;5015994;28;20256;-80
2022/01/08 00:31:13;;;;;;;7.35;4.38;;;5.00;81.80;;;;;;5012243;28;20224;-79
2022/01/08 00:33:41;;;;;;;7.47;4.18;;;5.00;81.40;;;;;;5010177;28;20675;-79
2022/01/08 00:36:09;;;;;;;7.50;4.03;;;5.00;81.60;;;;;;5010936;28;20839;-78
2022/01/08 00:38:37;;;;;;;6.82;4.35;;;5.00;81.70;;;;;;4994746;28;20267;-79
2022/01/08 00:41:06;;;;;;;5.50;3.75;;;5.00;81.30;;;;;;5013659;28;20590;-78
2022/01/08 00:43:35;;;;;;;5.75;3.55;;;4.90;81.30;;;;;;5019185;28;20271;-79
2022/01/08 00:46:03;;;;;;;5.95;3.58;;;4.90;81.30;;;;;;5018214;28;20323;-78
2022/01/08 00:48:31;;;;;;;5.63;3.95;;;4.90;81.20;;;;;;4997227;28;20253;-79
2022/01/08 00:50:59;;;;;;;5.18;3.50;;;4.90;81.40;;;;;;5017571;28;20209;-79
2022/01/08 00:53:27;;;;;;;8.63;4.28;;;4.90;81.40;;;;;;5011720;28;20254;-80
2022/01/08 00:55:55;;;;;;;6.60;4.05;;;4.90;81.60;;;;;;5015110;28;20223;-79
2022/01/08 00:58:23;;;;;;;6.50;4.28;;;4.90;81.40;;;;;;5016649;28;20897;-79
2022/01/08 01:00:53;;;;;;;11.00;3.95;;;4.90;81.60;;;;;;4995283;28;20237;-79
2022/01/08 01:03:21;;;;;;;6.82;4.18;;;4.90;81.60;;;;;;5017523;28;20256;-79
2022/01/08 01:05:49;;;;;;;5.45;3.55;;;4.90;81.60;;;;;;5016114;28;21097;-79
2022/01/08 01:08:17;;;;;;;6.55;3.90;;;4.90;81.40;;;;;;5016824;28;20260;-79
2022/01/08 01:10:45;;;;;;;5.68;2.80;;;4.90;81.10;;;;;;4999255;28;20697;-80
2022/01/08 01:13:13;;;;;;;5.40;3.35;;;4.90;81.20;;;;;;5021177;28;20276;-79
2022/01/08 01:15:41;;;;;;;4.30;3.10;;;4.90;81.30;;;;;;5011896;28;20243;-79
2022/01/08 01:18:10;;;;;;;6.15;3.90;;;4.90;81.30;;;;;;5014009;28;20212;-80
2022/01/08 01:20:38;;;;;;;5.78;3.08;;;4.90;81.40;;;;;;4994822;28;20201;-80
2022/01/08 01:23:11;;;;;;;6.38;3.33;;;4.90;81.60;;;;;;5018079;28;20267;-80
2022/01/08 01:25:43;;;;;;;5.18;3.30;;;4.90;81.60;;;;;;5013876;28;20225;-80
2022/01/08 01:28:30;;;;;;;4.82;2.80;;;5.00;81.60;;;;;;5015442;28;20218;-80
2022/01/08 01:47:44;;;;;;;6.20;3.05;;;5.00;81.10;;;;;;5021571;28;20217;-79
2022/01/08 01:50:13;;;;;;;6.35;3.92;;;5.00;81.10;;;;;;5016049;28;20308;-80
2022/01/08 01:52:41;;;;;;;6.93;3.40;;;4.90;81.10;;;;;;5013831;28;20745;-79
2022/01/08 01:55:10;;;;;;;4.63;2.78;;;4.90;81.10;;;;;;5021662;28;20678;-80
2022/01/08 01:57:38;;;;;;;6.10;3.42;;;4.90;81.10;;;;;;5014530;28;20244;-79
2022/01/08 02:00:08;;;;;;;4.00;2.90;;;4.90;81.10;;;;;;5011543;28;20683;-79
2022/01/08 02:02:41;;;;;;;6.70;3.05;;;4.90;81.20;;;;;;4998915;28;20204;-80
2022/01/08 02:05:10;;;;;;;5.47;2.97;;;4.90;81.10;;;;;;5009688;28;20205;-79
2022/01/08 02:07:40;;;;;;;4.45;2.95;;;4.90;81.20;;;;;;5000899;28;20221;-79
2022/01/08 02:10:09;;;;;;;5.68;2.75;;;4.90;81.20;;;;;;5019672;28;20201;-80
2022/01/08 02:12:37;;;;;;;4.40;3.20;;;4.90;81.30;;;;;;5005407;28;20204;-80
2022/01/08 02:15:06;;;;;;;7.10;3.55;;;4.90;81.10;;;;;;5022517;28;20197;-80
2022/01/08 02:17:34;;;;;;;7.63;3.55;;;4.80;81.10;;;;;;5020683;28;20225;-79
2022/01/08 02:20:04;;;;;;;6.45;3.08;;;4.80;81.10;;;;;;5023886;28;20255;-79
2022/01/08 02:22:32;;;;;;;5.35;3.50;;;4.80;81.10;;;;;;5017958;28;20255;-79
2022/01/08 02:25:00;;;;;;;4.40;3.05;;;4.80;81.00;;;;;;5012937;28;20186;-79
2022/01/08 02:27:28;;;;;;;5.18;3.22;;;4.80;81.10;;;;;;5019936;28;20193;-79
2022/01/08 02:29:56;;;;;;;5.28;3.20;;;4.70;81.10;;;;;;4992285;28;20205;-79
2022/01/08 02:32:28;;;;;;;6.93;4.57;;;4.70;81.20;;;;;;5020452;28;20837;-79
2022/01/08 02:34:56;;;;;;;4.80;2.70;;;4.70;81.30;;;;;;5003623;28;20697;-79
2022/01/08 02:37:30;;;;;;;6.50;2.80;;;4.70;81.20;;;;;;5016310;28;20265;-79
2022/01/08 02:39:58;;;;;;;3.95;2.40;;;4.70;81.30;;;;;;4997307;28;20218;-79
2022/01/08 02:42:36;;;;;;;5.40;3.17;;;4.70;81.10;;;;;;5014833;28;20247;-80
2022/01/08 02:45:06;;;;;;;6.45;2.05;;;4.60;81.10;;;;;;5013626;28;20671;-79
2022/01/08 02:47:33;;;;;;;5.63;2.60;;;4.50;81.30;;;;;;5005773;28;20225;-80
2022/01/08 02:50:02;;;;;;;5.03;2.92;;;4.50;81.30;;;;;;5018342;28;20262;-79
2022/01/08 02:52:31;;;;;;;7.45;3.25;;;4.50;81.40;;;;;;5016305;28;20205;-79
2022/01/08 02:54:59;;;;;;;5.90;3.47;;;4.50;81.50;;;;;;5001444;28;20210;-80
2022/01/08 02:57:27;;;;;;;7.70;2.90;;;4.50;81.40;;;;;;5019008;28;20218;-79
2022/01/08 02:59:55;;;;;;;5.38;3.20;;;4.50;81.40;;;;;;5004822;28;20542;-80
2022/01/08 03:02:23;;;;;;;5.53;3.42;;;4.50;81.40;;;;;;5020445;28;20335;-80
2022/01/08 03:04:52;;;;;;;5.53;2.92;;;4.50;81.60;;;;;;5019372;28;20193;-79
2022/01/08 03:07:21;;;;;;;3.63;2.60;;;4.50;81.70;;;;;;5017163;28;20231;-80
2022/01/08 03:09:56;;;;;;;8.48;3.20;;;4.50;81.80;;;;;;5021113;28;20204;-80
2022/01/08 03:12:27;;;;;;;5.15;2.75;;;4.60;81.90;;;;;;5017175;28;20189;-80
2022/01/08 03:14:55;;;;;;;3.65;2.15;;;4.70;81.80;;;;;;5020492;28;20197;-80
2022/01/08 03:17:24;;;;;;;3.63;2.40;;;4.70;81.70;;;;;;5013917;28;20240;-79
2022/01/08 03:19:53;;;;;;;4.95;2.20;;;4.70;81.60;;;;;;5019689;28;20208;-80
2022/01/08 03:22:21;;;;;;;5.00;2.72;;;4.70;81.60;;;;;;5020408;28;20201;-79
2022/01/08 03:24:51;;;;;;;3.90;2.55;;;4.70;81.40;;;;;;5013252;28;20201;-80
2022/01/08 03:27:19;;;;;;;5.10;2.30;;;4.60;81.50;;;;;;4994600;28;20225;-80
2022/01/08 03:29:46;;;;;;;4.47;2.50;;;4.60;81.60;;;;;;5015365;28;20201;-80
2022/01/08 03:32:15;;;;;;;3.72;2.35;;;4.60;81.70;;;;;;5014224;28;20298;-79
2022/01/08 03:34:43;;;;;;;4.15;2.78;;;4.70;81.80;;;;;;5021426;28;20870;-79
2022/01/08 03:37:11;;;;;;;4.95;2.60;;;4.70;81.80;;;;;;5003532;28;20249;-80
2022/01/08 03:39:39;;;;;;;4.65;2.47;;;4.70;81.70;;;;;;4998527;28;20888;-79
2022/01/08 03:42:09;;;;;;;6.70;3.83;;;4.70;81.70;;;;;;5020404;28;20200;-80
2022/01/08 03:44:37;;;;;;;5.53;3.50;;;4.70;81.50;;;;;;5012744;28;20196;-79
2022/01/08 03:47:23;;;;;;;7.50;3.65;;;4.60;81.60;;;;;;5020181;28;20234;-79
2022/01/08 03:49:51;;;;;;;7.72;3.22;;;4.60;81.70;;;;;;5016063;28;20209;-79
2022/01/08 03:52:20;;;;;;;6.93;3.55;;;4.60;81.70;;;;;;5013284;28;20254;-79
2022/01/08 03:54:48;;;;;;;7.20;4.10;;;4.60;81.60;;;;;;5002892;28;20616;-79
2022/01/08 03:57:17;;;;;;;6.63;3.55;;;4.50;81.50;;;;;;5012626;28;20228;-79
2022/01/08 03:59:45;;;;;;;7.00;3.45;;;4.50;81.60;;;;;;5009649;28;20210;-80
2022/01/08 04:02:13;;;;;;;5.63;3.60;;;4.50;81.60;;;;;;5002831;28;20229;-79
2022/01/08 04:04:41;;;;;;;6.35;4.20;;;4.50;81.80;;;;;;5001463;28;20827;-79
2022/01/08 04:07:10;;;;;;;5.30;3.22;;;4.50;81.80;;;;;;5017263;28;20244;-80
2022/01/08 04:09:38;;;;;;;5.07;3.40;;;4.50;81.70;;;;;;5015041;28;20201;-80
2022/01/08 04:12:07;;;;;;;6.30;3.60;;;4.40;81.80;;;;;;5018684;28;20205;-80
2022/01/08 04:14:50;;;;;;;8.27;3.45;;;4.40;81.80;;;;;;4999219;28;20208;-79
2022/01/08 04:17:18;;;;;;;4.25;2.75;;;4.50;82.00;;;;;;5009884;28;20263;-79
2022/01/08 04:19:46;;;;;;;7.05;3.45;;;4.50;82.10;;;;;;5022856;28;20259;-79
2022/01/08 04:22:16;;;;;;;5.00;3.30;;;4.60;82.00;;;;;;5012676;28;20699;-79
2022/01/08 04:24:44;;;;;;;7.20;3.40;;;4.60;82.00;;;;;;5015511;28;20253;-78
2022/01/08 04:27:12;;;;;;;5.00;3.53;;;4.70;82.00;;;;;;5011449;28;20295;-79
2022/01/08 04:29:42;;;;;;;10.60;3.95;;;4.60;81.70;;;;;;5018209;28;20209;-79
2022/01/08 04:32:10;;;;;;;4.78;3.35;;;4.60;81.70;;;;;;5022865;28;20232;-79
2022/01/08 04:34:38;;;;;;;5.55;3.65;;;4.60;81.90;;;;;;5024205;28;20190;-78
2022/01/08 04:37:06;;;;;;;5.22;3.60;;;4.60;81.90;;;;;;5017700;28;20221;-79
2022/01/08 04:39:34;;;;;;;6.05;4.05;;;4.60;81.90;;;;;;5026017;28;20212;-79
2022/01/08 04:42:02;;;;;;;5.53;3.33;;;4.70;81.90;;;;;;5024309;28;20262;-79
2022/01/08 04:44:30;;;;;;;5.55;3.03;;;4.60;81.70;;;;;;5017045;28;20594;-79
2022/01/08 04:47:00;;;;;;;4.50;3.03;;;4.60;81.60;;;;;;5017784;28;20312;-79
2022/01/08 04:49:28;;;;;;;5.07;3.20;;;4.50;81.60;;;;;;4997284;28;20680;-78
2022/01/08 04:51:56;;;;;;;5.00;3.22;;;4.50;81.80;;;;;;5020844;28;20758;-79
2022/01/08 04:54:25;;;;;;;4.50;2.55;;;4.50;81.80;;;;;;5000756;28;20217;-78
2022/01/08 04:56:53;;;;;;;5.82;3.20;;;4.50;81.90;;;;;;5006445;28;20220;-78
2022/01/08 04:59:21;;;;;;;5.97;3.20;;;4.60;81.90;;;;;;5022997;28;20205;-80
2022/01/08 05:01:49;;;;;;;5.05;3.00;;;4.50;81.90;;;;;;5019469;28;20236;-79
2022/01/08 05:04:19;;;;;;;4.38;2.80;;;4.60;82.00;;;;;;5015358;28;20202;-80
2022/01/08 05:06:47;;;;;;;4.57;3.13;;;4.60;82.10;;;;;;5025840;28;20278;-81
2022/01/08 05:09:15;;;;;;;3.92;2.70;;;4.70;82.10;;;;;;5024610;28;20615;-80
2022/01/08 05:11:46;;;;;;;5.32;3.35;;;4.70;82.10;;;;;;5016326;28;20220;-80
2022/01/08 05:14:14;;;;;;;6.18;3.00;;;4.70;82.00;;;;;;5017459;28;20225;-79
2022/01/08 05:16:44;;;;;;;5.65;3.10;;;4.70;82.00;;;;;;5023657;28;20240;-78
2022/01/08 05:19:21;;;;;;;4.90;3.10;;;4.70;81.90;;;;;;5018784;28;20204;-80
2022/01/08 05:21:57;;;;;;;5.13;2.80;;;4.70;81.90;;;;;;5021118;28;20705;-80
2022/01/08 05:24:25;;;;;;;5.82;3.10;;;4.70;82.00;;;;;;5002281;28;20213;-80
2022/01/08 05:26:53;;;;;;;4.55;2.90;;;4.70;81.80;;;;;;5015581;28;20220;-80
2022/01/08 05:29:21;;;;;;;3.97;3.05;;;4.70;81.80;;;;;;5022935;28;20189;-80
2022/01/08 05:31:49;;;;;;;5.47;2.42;;;4.70;81.80;;;;;;5011594;28;20229;-79
2022/01/08 05:34:17;;;;;;;6.35;3.85;;;4.60;81.60;;;;;;5021219;28;20201;-80
2022/01/08 05:36:45;;;;;;;8.07;4.03;;;4.60;81.80;;;;;;5019450;28;20286;-79
2022/01/08 05:39:14;;;;;;;6.65;3.42;;;4.50;82.00;;;;;;5020422;28;20208;-80
2022/01/08 05:41:42;;;;;;;6.18;3.88;;;4.60;82.10;;;;;;5017201;28;20202;-79
2022/01/08 05:44:10;;;;;;;6.55;4.43;;;4.60;82.10;;;;;;5022560;28;20670;-80
2022/01/08 05:46:43;;;;;;;5.97;3.72;;;4.60;81.90;;;;;;5021181;28;20248;-80
2022/01/08 05:49:12;;;;;;;6.88;4.30;;;4.60;82.00;;;;;;5015163;28;20213;-80
2022/01/08 05:51:40;;;;;;;9.57;5.75;;;4.60;81.80;;;;;;5023297;28;20200;-79
2022/01/08 05:54:08;;;;;;;9.30;5.65;;;4.50;81.50;;;;;;5014114;28;20730;-80
2022/01/08 05:56:37;;;;;;;7.90;4.65;;;4.40;81.40;;;;;;5025762;28;20232;-79
2022/01/08 05:59:05;;;;;;;8.10;4.90;;;4.30;81.70;;;;;;5022253;28;20214;-80
2022/01/08 06:01:34;;;;;;;6.20;4.70;;;4.20;81.80;;;;;;5019176;28;20229;-80
2022/01/08 06:04:02;;;;;;;7.60;4.55;;;4.20;82.10;;;;;;5014441;28;20270;-80
2022/01/08 06:06:30;;;;;;;6.90;5.07;;;4.20;82.30;;;;;;5005771;28;20233;-80
2022/01/08 06:08:58;;;;;;;6.20;4.57;;;4.20;82.40;;;;;;5019548;28;20309;-79
2022/01/08 06:11:26;;;;;;;7.10;4.70;;;4.30;82.30;;;;;;5018405;28;20209;-80
2022/01/08 06:13:55;;;;;;;7.95;5.05;;;4.30;82.40;;;;;;5022053;28;20196;-79
2022/01/08 06:16:23;;;;;;;5.43;4.45;;;4.30;82.40;;;;;;5019462;28;20237;-80
2022/01/08 06:18:51;;;;;;;7.35;5.00;;;4.40;82.40;;;;;;5006380;28;20209;-80
2022/01/08 06:21:19;;;;;;;7.38;4.78;;;4.40;82.40;;;;;;5016735;28;20208;-80
2022/01/08 06:23:47;;;;;;;7.03;4.95;;;4.40;82.40;;;;;;5004471;28;20209;-81
2022/01/08 06:26:15;;;;;;;8.73;5.82;;;4.40;82.30;;;;;;5019843;28;20236;-80
2022/01/08 06:28:43;;;;;;;7.00;4.90;;;4.50;82.30;;;;;;5018781;28;20214;-79
2022/01/08 06:31:13;;;;;;;6.65;4.40;;;4.50;82.40;;;;;;5019393;28;20288;-79
2022/01/08 06:33:41;;;;;;;5.88;4.07;;;4.50;82.10;;;;;;5020215;28;20205;-79
2022/01/08 06:36:09;;;;;;;6.03;4.25;;;4.40;81.90;;;;;;5024267;28;20628;-80
2022/01/08 06:38:41;;;;;;;4.50;3.17;;;4.40;82.10;;;;;;5025146;28;20267;-80
2022/01/08 06:41:09;;;;;;;4.47;3.28;;;4.30;82.10;;;;;;5021592;28;20629;-79
2022/01/08 06:43:37;;;;;;;5.85;3.38;;;4.20;82.00;;;;;;5014874;28;20216;-80
2022/01/08 06:46:06;;;;;;;4.95;3.83;;;4.10;81.90;;;;;;5020186;28;20228;-80
2022/01/08 06:48:35;;;;;;;9.20;6.22;;;4.10;82.30;;;;;;5018010;28;20193;-81
2022/01/08 06:51:03;;;;;;;6.43;4.75;;;4.10;82.40;;;;;;5016250;28;20205;-82
2022/01/08 06:53:31;;;;;;;6.70;4.80;;;4.10;82.40;;;;;;5019744;28;20200;-82
2022/01/08 06:55:59;;;;;;;9.88;5.60;;;4.00;82.50;;;;;;5017277;28;20237;-83
2022/01/08 06:58:27;;;;;;;8.35;5.63;;;4.00;82.60;;;;;;5014998;28;20209;-83
2022/01/08 07:00:55;;;;;;;7.70;4.78;;;4.10;82.80;;;;;;5017711;28;20228;-82
2022/01/08 07:03:24;;;;;;;5.55;3.70;;;4.10;82.70;;;;;;5006480;28;20223;-83
2022/01/08 07:05:54;;;;;;;5.20;3.20;;;4.10;82.60;;;;;;5005828;28;20256;-83
2022/01/08 07:08:21;;;;;;;5.28;2.40;;;4.00;82.60;;;;;;5015394;28;20193;-82
2022/01/08 07:10:49;;;;;;;3.45;1.90;;;4.00;82.60;;;;;;5014364;28;21074;-83
2022/01/08 07:13:17;;;;;;;8.07;1.65;;;4.00;82.70;;;;;;5003718;28;20204;-82
2022/01/08 07:15:45;;;;;;;3.20;1.60;;;4.00;82.70;;;;;;5014910;28;20233;-83
2022/01/08 07:18:13;;;;;;;2.83;1.48;;;4.00;82.90;;;;;;5018050;28;20194;-84
2022/01/08 07:20:41;;;;;;;2.50;1.30;;;4.00;82.80;;;;;;5012341;28;20217;-82
2022/01/08 07:23:11;;;;;;;2.42;1.15;;;4.00;82.80;;;;;;5021567;28;20204;-83
2022/01/08 07:25:39;;;;;;;2.80;1.40;;;3.90;82.90;;;;;;5013805;28;21065;-82
2022/01/08 07:28:07;;;;;;;2.80;0.90;;;3.90;83.00;;;;;;5018250;28;20202;-82
2022/01/08 07:30:35;;;;;;;2.25;1.00;;;3.90;83.00;;;;;;5004112;28;20240;-82
2022/01/08 07:33:03;;;;;;;2.95;1.10;;;3.90;83.00;;;;;;4995498;28;20209;-83
2022/01/08 07:35:31;;;;;;;2.13;0.90;;;3.90;83.10;;;;;;5021699;28;20296;-83
2022/01/08 07:38:01;;;;;;;4.95;0.95;;;3.90;83.10;;;;;;5014205;28;20201;-82
2022/01/08 07:40:30;;;;;;;3.20;1.10;;;3.90;83.10;;;;;;5016647;28;20208;-82
2022/01/08 07:42:58;;;;;;;2.28;0.80;;;3.90;83.00;;;;;;5024665;28;20205;-82
2022/01/08 07:45:26;;;;;;;2.72;0.90;;;3.90;83.00;;;;;;5004015;28;20244;-82
2022/01/08 07:47:54;;;;;;;2.15;1.08;;;3.90;83.10;;;;;;5020522;28;20205;-83
2022/01/08 07:50:23;;;;;;;2.78;1.10;;;3.90;83.00;;;;;;5016253;28;20237;-82
2022/01/08 07:52:51;;;;;;;2.25;1.00;;;3.90;83.10;;;;;;5021011;28;20193;-82
2022/01/08 07:55:19;;;;;;;2.55;0.90;;;3.90;83.10;;;;;;5018030;28;20736;-83
2022/01/08 07:57:48;;;;;;;4.10;1.00;;;4.00;83.10;;;;;;5015031;28;20205;-82
2022/01/08 08:00:17;;;;;;;2.25;1.17;;;4.00;83.10;;;;;;5009905;28;20214;-83
2022/01/08 08:02:45;;;;;;;3.47;1.45;;;4.00;83.20;;;;;;5006373;28;20250;-83
2022/01/08 08:05:13;;;;;;;3.70;1.40;;;4.00;83.20;;;;;;5005225;28;20201;-83
2022/01/08 08:07:41;;;;;;;4.35;2.25;;;4.10;83.20;;;;;;5024531;28;20220;-83
2022/01/08 08:10:11;;;;;;;3.15;1.80;;;4.10;83.20;;;;;;5019138;28;20208;-83
2022/01/08 08:12:39;;;;;;;4.65;2.15;;;4.10;83.20;;;;;;5001451;28;20201;-83
2022/01/08 08:15:11;;;;;;;4.07;1.90;;;4.20;83.10;;;;;;5012185;28;20205;-82
2022/01/08 08:17:39;;;;;;;7.80;2.47;;;4.20;83.00;;;;;;4997749;28;20201;-83
2022/01/08 08:20:09;;;;;;;4.80;2.15;;;4.20;82.90;;;;;;5011799;28;20216;-82
2022/01/08 08:22:37;;;;;;;5.50;1.92;;;4.20;82.90;;;;;;5017490;28;20401;-83
2022/01/08 08:25:07;;;;;;;5.50;1.83;;;4.20;82.90;;;;;;5005158;28;20201;-83
2022/01/08 08:27:35;;;;;;;4.53;1.30;;;4.20;82.90;;;;;;5012339;28;20201;-82
2022/01/08 08:30:04;;;;;;;4.60;2.05;;;4.20;82.90;;;;;;5018807;28;20201;-83
2022/01/08 08:32:33;;;;;;;3.92;1.92;;;4.20;82.90;;;;;;5017283;28;20232;-83
2022/01/08 08:35:01;;;;;;;4.03;1.90;;;4.20;83.00;;;;;;5019110;28;20831;-83
2022/01/08 08:37:29;;;;;;;6.43;3.10;;;4.20;83.00;;;;;;5020154;28;20221;-83
2022/01/08 08:39:57;;;;;;;5.90;2.97;;;4.30;83.00;;;;;;5001630;28;20218;-83
2022/01/08 08:42:26;;;;;;;5.13;2.67;;;4.30;83.10;;;;;;4997667;28;20637;-82
2022/01/08 08:44:54;;;;;;;5.28;2.60;;;4.30;83.00;;;;;;5005330;28;20218;-83
2022/01/08 08:47:22;;;;;;;5.60;2.95;;;4.30;82.90;;;;;;5016550;28;20229;-82
2022/01/08 08:49:51;;;;;;;5.30;3.20;;;4.30;82.70;;;;;;4998836;28;20217;-83
2022/01/08 08:52:21;;;;;;;4.20;3.13;;;4.30;82.80;;;;;;5011867;28;20680;-82
2022/01/08 08:54:49;;;;;;;6.03;2.80;;;4.20;82.70;;;;;;4997134;28;20201;-83
2022/01/08 08:57:17;;;;;;;10.35;3.30;;;4.20;82.70;;;;;;5019320;28;20230;-83
2022/01/08 08:59:45;;;;;;;6.47;3.40;;;4.20;82.80;;;;;;4998485;28;20212;-83
2022/01/08 09:02:13;;;;;;;5.30;3.30;;;4.20;82.80;;;;;;5022682;28;20236;-83
2022/01/08 09:04:41;;;;;;;7.70;3.70;;;4.20;82.90;;;;;;5005864;28;20209;-82
2022/01/08 09:07:12;;;;;;;5.45;3.58;;;4.20;82.90;;;;;;5013220;28;20224;-83
2022/01/08 09:09:40;;;;;;;5.38;4.07;;;4.20;82.90;;;;;;5012884;28;20198;-83
2022/01/08 09:12:10;;;;;;;5.55;3.78;;;4.20;83.00;;;;;;5017195;28;20181;-84
2022/01/08 09:14:41;;;;;;;5.30;3.97;;;4.20;82.80;;;;;;4996084;28;20254;-83
2022/01/08 09:17:12;;;;;;;6.63;3.92;;;4.20;82.70;;;;;;5002371;28;20225;-83
2022/01/08 09:19:41;;;;;;;6.05;3.90;;;4.20;82.60;;;;;;5006272;28;20255;-83
2022/01/08 09:22:09;;;;;;;8.07;3.60;;;4.20;82.60;;;;;;5018984;28;20217;-84
2022/01/08 09:24:38;;;;;;;5.57;4.03;;;4.20;82.70;;;;;;5007546;28;20585;-83
2022/01/08 09:27:07;;;;;;;7.85;3.58;;;4.20;82.70;;;;;;5022184;28;20229;-84
2022/01/08 09:29:35;;;;;;;5.53;3.97;;;4.20;82.70;;;;;;5027005;28;20189;-83
2022/01/08 09:32:05;;;;;;;6.00;3.55;;;4.20;82.60;;;;;;5022206;28;20728;-84
2022/01/08 09:34:33;;;;;;;7.53;4.15;;;4.20;82.60;;;;;;5021538;28;20197;-84
2022/01/08 09:37:02;;;;;;;4.85;3.70;;;4.20;82.70;;;;;;5020181;28;20256;-83
2022/01/08 09:39:30;;;;;;;6.40;3.72;;;4.20;82.60;;;;;;5017861;28;20198;-84
2022/01/08 09:42:00;;;;;;;5.75;3.70;;;4.20;82.70;;;;;;5003006;28;20252;-83
2022/01/08 09:44:28;;;;;;;7.63;4.05;;;4.20;82.70;;;;;;5002974;28;20206;-84
2022/01/08 09:46:56;;;;;;;6.43;4.15;;;4.20;82.70;;;;;;5022719;28;20225;-84
2022/01/08 09:49:24;;;;;;;8.02;4.68;;;4.20;82.80;;;;;;5024945;28;20220;-83
2022/01/08 09:51:52;;;;;;;7.60;4.32;;;4.20;82.80;;;;;;5000875;28;20200;-83
2022/01/08 09:54:20;;;;;;;11.52;5.00;;;4.20;82.70;;;;;;5004017;28;20193;-83
2022/01/08 09:56:49;;;;;;;7.30;5.40;;;4.30;82.60;;;;;;5022688;28;20209;-83
2022/01/08 09:59:19;;;;;;;7.32;5.38;;;4.20;82.50;;;;;;5024521;28;20224;-84
2022/01/08 10:01:54;;;;;;;9.13;5.43;;;4.20;82.50;;;;;;5020019;28;20778;-83
2022/01/08 10:04:25;;;;;;;10.38;4.95;;;4.20;82.70;;;;;;5004486;28;20670;-84
2022/01/08 10:07:13;;;;;;;8.20;5.05;;;4.30;82.70;;;;;;5022643;28;20713;-83
2022/01/08 10:10:10;;;;;;;8.55;5.65;;;4.30;82.70;;;;;;5003574;28;20558;-84
2022/01/08 10:12:45;;;;;;;9.52;5.32;;;4.30;82.60;;;;;;5018702;28;20701;-84
2022/01/08 10:18:03;;;;;;;9.52;5.75;;;4.30;82.80;;;;;;5023279;28;20216;-82
2022/01/08 10:20:34;;;;;;;17.30;6.30;;;4.40;82.70;;;;;;5007128;28;20223;-82
2022/01/08 10:23:15;;;;;;;10.88;6.18;;;4.40;82.70;;;;;;5018114;28;20197;-82
2022/01/08 10:25:55;;;;;;;10.73;6.15;;;4.50;82.80;;;;;;5019273;28;20229;-81
2022/01/08 10:28:37;;;;;;;8.13;5.50;;;4.50;82.90;;;;;;5007271;28;20213;-82
2022/01/08 10:31:15;;;;;;;10.68;6.35;;;4.50;82.90;;;;;;5021279;28;20221;-82
2022/01/08 10:33:45;;;;;;;12.68;6.43;;;4.60;82.90;;;;;;5026412;28;20228;-83
2022/01/08 10:36:13;;;;;;;17.48;8.07;;;4.60;82.70;;;;;;5014745;28;20698;-83
2022/01/08 10:38:42;;;;;;;11.93;6.70;;;4.60;82.60;;;;;;5003707;28;20206;-82
2022/01/08 10:41:15;;;;;;;10.20;6.20;;;4.60;82.60;;;;;;5022840;28;20714;-83
2022/01/08 10:43:45;;;;;;;13.07;7.15;;;4.60;82.40;;;;;;5005401;28;20201;-82
2022/01/08 10:46:17;;;;;;;15.88;7.15;;;4.60;82.40;;;;;;5016365;28;20251;-82
2022/01/08 10:48:47;;;;;;;11.00;6.60;;;4.60;82.50;;;;;;5019625;28;20196;-82
2022/01/08 10:51:21;;;;;;;9.32;6.20;;;4.70;82.60;;;;;;4976204;28;20847;-82
2022/01/08 10:54:09;;;;;;;10.05;6.35;;;4.70;82.40;;;;;;5021943;28;20203;-82
2022/01/08 10:56:40;;;;;;;8.68;5.60;;;4.70;82.30;;;;;;4994676;28;20237;-83
2022/01/08 10:59:12;;;;;;;7.75;5.65;;;4.60;82.30;;;;;;4996852;28;20908;-83
2022/01/08 11:01:50;;;;;;;16.92;6.35;;;4.70;82.30;;;;;;5001920;28;24957;-74
2022/01/08 11:04:30;;;;;;;7.80;5.55;;;4.70;82.40;;;;;;5012743;28;20229;-74
2022/01/08 11:07:00;;;;;;;8.32;5.30;;;4.70;82.30;;;;;;5014796;28;20225;-74
2022/01/08 11:09:29;;;;;;;8.90;5.43;;;4.70;82.20;;;;;;5012113;28;20225;-74
2022/01/08 11:11:58;;;;;;;10.32;6.03;;;4.70;81.90;;;;;;5001465;28;20190;-74
2022/01/08 11:15:00;;;;;;;7.57;4.85;;;4.70;82.00;;;;;;5016385;28;20201;-74
2022/01/08 11:17:33;;;;;;;8.25;5.38;;;4.70;82.00;;;;;;5010635;28;20224;-74
2022/01/08 11:20:05;;;;;;;7.65;4.65;;;4.60;81.80;;;;;;5013946;28;20201;-74
2022/01/08 11:22:35;;;;;;;9.23;6.18;;;4.60;82.00;;;;;;5006308;28;20294;-74
2022/01/08 11:25:06;;;;;;;14.20;5.93;;;4.60;82.10;;;;;;5014496;28;20200;-73
2022/01/08 11:28:00;;;;;;;11.05;6.07;;;4.70;82.10;;;;;;5011869;28;20210;-73
2022/01/08 11:30:30;;;;;;;8.57;5.32;;;4.80;82.40;;;;;;5007349;28;20236;-72
2022/01/08 11:33:05;;;;;;;9.95;4.82;;;4.80;82.30;;;;;;5012206;28;20202;-73
2022/01/08 11:35:42;;;;;;;9.35;4.65;;;4.90;82.50;;;;;;5004339;28;20228;-73
2022/01/08 11:38:13;;;;;;;8.65;4.50;;;5.00;82.40;;;;;;5013336;28;20224;-75
2022/01/08 11:40:43;;;;;;;9.32;4.30;;;5.10;82.20;;;;;;5016178;28;20280;-73
2022/01/08 11:43:13;;;;;;;12.90;5.28;;;5.10;82.20;;;;;;5015370;28;20229;-73
2022/01/08 11:45:47;;;;;;;9.32;5.03;;;5.20;82.00;;;;;;4952134;28;20241;-73
2022/01/08 11:48:18;;;;;;;7.30;4.35;;;5.30;81.90;;;;;;5015095;28;20210;-72
2022/01/08 11:50:51;;;;;;;8.27;4.97;;;5.30;82.00;;;;;;5013124;28;20289;-73
2022/01/08 11:53:22;;;;;;;8.55;5.97;;;5.30;82.10;;;;;;5013572;28;20201;-73
2022/01/08 11:55:52;;;;;;;10.00;4.80;;;5.30;81.90;;;;;;5010633;28;20469;-73
2022/01/08 11:58:23;;;;;;;8.98;5.30;;;5.40;82.00;;;;;;4993728;28;20212;-73
2022/01/08 12:00:57;;;;;;;10.52;5.95;;;5.40;82.00;;;;;;5003208;28;20244;-73
2022/01/08 12:03:38;;;;;;;11.43;6.90;;;5.40;81.50;;;;;;4986960;28;20472;-73
2022/01/08 12:06:37;;;;;;;12.57;5.50;;;5.40;81.30;;;;;;5015345;28;20221;-75
2022/01/08 12:09:28;;;;;;;10.68;5.22;;;5.50;81.50;;;;;;5001243;28;20216;-73
2022/01/08 12:12:00;;;;;;;10.40;5.75;;;5.50;81.30;;;;;;5008120;28;20212;-73
2022/01/08 12:14:30;;;;;;;10.35;5.70;;;5.50;81.30;;;;;;5012024;28;20220;-73
2022/01/08 12:17:11;;;;;;;8.77;5.25;;;5.40;81.40;;;;;;5012504;28;20295;-73
2022/01/08 12:19:45;;;;;;;8.90;5.53;;;5.50;81.40;;;;;;5010985;28;20225;-73
2022/01/08 12:22:33;;;;;;;9.65;6.15;;;5.40;80.80;;;;;;5008195;28;20217;-73
2022/01/08 12:25:03;;;;;;;8.68;4.70;;;5.40;81.10;;;;;;5012868;28;20202;-73
2022/01/08 12:27:44;;;;;;;12.25;4.80;;;5.40;81.20;;;;;;5012053;28;20267;-73
2022/01/08 12:30:37;;;;;;;9.80;5.13;;;5.30;80.90;;;;;;5014430;28;20203;-73
2022/01/08 12:33:24;;;;;;;8.85;4.88;;;5.30;80.50;;;;;;5011171;28;20202;-74
2022/01/08 12:35:58;;;;;;;12.18;5.47;;;5.30;80.90;;;;;;5018869;28;20221;-73
2022/01/08 12:38:28;;;;;;;6.90;4.00;;;5.30;80.80;;;;;;5019898;28;20200;-73
2022/01/08 12:40:58;;;;;;;8.88;4.30;;;5.30;80.90;;;;;;5003143;28;20198;-73
2022/01/08 12:43:31;;;;;;;7.30;4.15;;;5.30;81.00;;;;;;5020419;28;20259;-73
2022/01/08 12:46:17;;;;;;;11.18;4.13;;;5.30;80.40;;;;;;5017236;28;20235;-72
2022/01/08 12:49:14;;;;;;;7.13;3.35;;;5.30;80.50;;;;;;5018963;28;20292;-73
2022/01/08 12:52:03;;;;;;;6.25;3.75;;;5.20;80.40;;;;;;4998174;28;20698;-73
2022/01/08 12:54:32;;;;;;;9.93;3.92;;;5.20;80.70;;;;;;5019995;28;20209;-73
2022/01/08 12:57:05;;;;;;;8.43;3.40;;;5.20;80.50;;;;;;5018254;28;20304;-73
2022/01/08 12:59:36;;;;;;;6.10;3.47;;;5.20;80.30;;;;;;5018346;28;20232;-73
2022/01/08 13:02:08;;;;;;;6.65;3.35;;;5.20;80.10;;;;;;5015727;28;20301;-73
2022/01/08 13:04:38;;;;;;;6.00;3.72;;;5.20;80.30;;;;;;5001228;28;20240;-73
2022/01/08 13:07:08;;;;;;;5.30;3.20;;;5.20;79.70;;;;;;5001199;28;20226;-73
2022/01/08 13:09:36;;;;;;;7.68;3.15;;;5.20;79.90;;;;;;5018089;28;20714;-73
2022/01/08 13:12:05;;;;;;;6.97;3.35;;;5.10;79.90;;;;;;5006434;28;20215;-73
2022/01/08 13:14:33;;;;;;;5.80;2.80;;;5.10;79.90;;;;;;5019222;28;20323;-73
2022/01/08 13:17:02;;;;;;;6.55;3.10;;;5.10;79.80;;;;;;5018558;28;21020;-74
2022/01/08 13:19:31;;;;;;;6.78;3.22;;;5.10;79.90;;;;;;5018281;28;20193;-73
2022/01/08 13:22:02;;;;;;;7.68;3.45;;;5.10;80.10;;;;;;5019739;28;20197;-73
2022/01/08 13:24:34;;;;;;;9.35;3.30;;;5.10;80.10;;;;;;5017641;28;20965;-74
2022/01/08 13:27:03;;;;;;;9.07;3.45;;;5.10;79.50;;;;;;5007955;28;20232;-74
2022/01/08 13:29:34;;;;;;;6.45;3.10;;;5.10;78.90;;;;;;5013301;28;20212;-74
2022/01/08 13:32:04;;;;;;;8.85;3.70;;;5.10;79.40;;;;;;5004469;28;20307;-74